createdAt,value
2023-08-02T00:01:49.410Z,18.44
2023-08-02T00:04:16.757Z,17.90
2023-08-02T00:06:44.403Z,18.09
2023-08-02T00:09:11.944Z,17.75
2023-08-02T00:11:38.847Z,18.05
2023-08-02T00:14:05.690Z,18.02
2023-08-02T00:16:33.747Z,18.03
2023-08-02T00:19:00.752Z,18.13
2023-08-02T00:21:27.678Z,18.13
2023-08-02T00:23:54.510Z,18.70
2023-08-02T00:26:21.338Z,18.76
2023-08-02T00:28:48.124Z,18.63
2023-08-02T00:31:15.013Z,18.62
2023-08-02T00:33:41.869Z,18.59
2023-08-02T00:36:09.585Z,18.50
2023-08-02T00:38:36.497Z,18.54
2023-08-02T00:41:05.242Z,18.66
2023-08-02T00:43:42.266Z,17.93
2023-08-02T00:46:10.556Z,18.36
2023-08-02T00:48:38.630Z,18.29
2023-08-02T00:51:13.329Z,18.62
2023-08-02T00:53:40.791Z,18.57
2023-08-02T00:56:08.021Z,18.69
2023-08-02T00:58:35.013Z,18.97
2023-08-02T01:01:09.125Z,18.58
2023-08-02T01:03:41.020Z,18.42
2023-08-02T01:06:37.721Z,19.13
2023-08-02T01:09:08.752Z,19.14
2023-08-02T01:11:46.116Z,18.78
2023-08-02T01:14:19.829Z,18.95
2023-08-02T01:16:49.197Z,19.33
2023-08-02T01:19:22.066Z,18.98
2023-08-02T01:21:50.221Z,18.38
2023-08-02T01:24:17.751Z,18.47
2023-08-02T01:26:49.042Z,18.64
2023-08-02T01:29:21.226Z,18.69
2023-08-02T01:31:49.225Z,18.55
2023-08-02T01:34:19.149Z,18.19
2023-08-02T01:36:46.013Z,18.79
2023-08-02T01:39:13.201Z,18.33
2023-08-02T01:41:40.108Z,18.45
2023-08-02T01:44:07.114Z,18.57
2023-08-02T01:46:33.967Z,18.22
2023-08-02T01:49:01.199Z,18.62
2023-08-02T01:51:28.020Z,18.30
2023-08-02T01:53:54.876Z,18.68
2023-08-02T01:56:21.726Z,18.49
2023-08-02T01:58:48.548Z,18.96
2023-08-02T02:01:15.450Z,18.90
2023-08-02T02:03:42.475Z,18.62
2023-08-02T02:06:09.404Z,18.42
2023-08-02T02:08:37.079Z,18.63
2023-08-02T02:11:05.250Z,18.31
2023-08-02T02:13:32.408Z,18.11
2023-08-02T02:15:59.316Z,18.41
2023-08-02T02:18:26.299Z,18.79
2023-08-02T02:20:53.730Z,18.29
2023-08-02T02:23:20.668Z,18.10
2023-08-02T02:25:48.195Z,18.41
2023-08-02T02:28:15.600Z,18.42
2023-08-02T02:30:44.156Z,18.25
2023-08-02T02:33:11.501Z,18.01
2023-08-02T02:35:39.915Z,18.42
2023-08-02T02:38:06.884Z,18.38
2023-08-02T02:40:33.714Z,18.53
2023-08-02T02:43:00.799Z,18.71
2023-08-02T02:45:27.726Z,18.10
2023-08-02T02:47:54.708Z,18.49
2023-08-02T02:50:21.638Z,18.59
2023-08-02T02:52:48.566Z,18.00
2023-08-02T02:55:15.509Z,18.37
2023-08-02T02:57:42.488Z,18.52
2023-08-02T03:00:09.807Z,18.54
2023-08-02T03:02:36.795Z,18.36
2023-08-02T03:05:04.039Z,18.57
2023-08-02T03:07:30.906Z,18.92
2023-08-02T03:09:58.218Z,18.79
2023-08-02T03:12:25.084Z,19.01
2023-08-02T03:14:52.390Z,19.12
2023-08-02T03:17:19.658Z,19.03
2023-08-02T03:19:47.033Z,19.31
2023-08-02T03:22:13.846Z,18.83
2023-08-02T03:24:40.705Z,19.03
2023-08-02T03:27:07.811Z,18.85
2023-08-02T03:29:34.855Z,19.08
2023-08-02T03:32:01.790Z,18.74
2023-08-02T03:34:28.621Z,18.96
2023-08-02T03:36:55.470Z,19.01
2023-08-02T03:39:22.315Z,18.75
2023-08-02T03:41:49.168Z,19.01
2023-08-02T03:44:16.008Z,18.71
2023-08-02T03:46:43.070Z,18.20
2023-08-02T03:49:10.187Z,18.83
2023-08-02T03:51:37.070Z,18.83
2023-08-02T03:54:05.606Z,18.86
2023-08-02T03:56:32.489Z,19.03
2023-08-02T03:58:59.353Z,18.81
2023-08-02T04:01:26.263Z,18.88
2023-08-02T04:03:53.262Z,18.68
2023-08-02T04:06:20.161Z,18.90
2023-08-02T04:08:48.195Z,18.68
2023-08-02T04:11:15.103Z,18.66
2023-08-02T04:13:41.920Z,18.70
2023-08-02T04:16:08.773Z,18.49
2023-08-02T04:18:35.810Z,18.71
2023-08-02T04:21:02.754Z,18.45
2023-08-02T04:23:29.630Z,18.41
2023-08-02T04:25:58.922Z,18.69
2023-08-02T04:28:26.806Z,18.19
2023-08-02T04:30:53.831Z,18.17
2023-08-02T04:33:21.924Z,18.49
2023-08-02T04:35:48.782Z,18.55
2023-08-02T04:38:15.585Z,18.77
2023-08-02T04:40:42.408Z,18.24
2023-08-02T04:43:09.231Z,18.76
2023-08-02T04:45:36.067Z,18.16
2023-08-02T04:48:03.079Z,18.38
2023-08-02T04:50:33.647Z,18.38
2023-08-02T04:53:00.716Z,18.30
2023-08-02T04:55:27.548Z,18.40
2023-08-02T04:57:54.453Z,18.50
2023-08-02T05:00:21.456Z,18.48
2023-08-02T05:02:48.293Z,18.06
2023-08-02T05:05:15.172Z,18.13
2023-08-02T05:07:42.123Z,18.40
2023-08-02T05:10:09.208Z,18.31
2023-08-02T05:12:41.341Z,18.09
2023-08-02T05:15:09.176Z,18.67
2023-08-02T05:17:36.032Z,18.51
2023-08-02T05:20:03.198Z,17.96
2023-08-02T05:22:32.271Z,18.15
2023-08-02T05:24:59.507Z,18.11
2023-08-02T05:27:26.342Z,18.11
2023-08-02T05:29:53.975Z,18.20
2023-08-02T05:32:20.968Z,18.23
2023-08-02T05:34:47.855Z,18.49
2023-08-02T05:37:14.738Z,18.34
2023-08-02T05:39:41.564Z,18.35
2023-08-02T05:42:08.356Z,18.71
2023-08-02T05:44:37.773Z,18.50
2023-08-02T05:47:04.968Z,18.25
2023-08-02T05:49:31.843Z,18.31
2023-08-02T05:51:58.730Z,18.21
2023-08-02T05:54:25.616Z,18.50
2023-08-02T05:56:52.434Z,18.58
2023-08-02T05:59:19.255Z,18.88
2023-08-02T06:01:46.437Z,18.97
2023-08-02T06:04:13.478Z,18.37
2023-08-02T06:06:40.473Z,18.62
2023-08-02T06:09:09.969Z,19.17
2023-08-02T06:11:37.899Z,19.00
2023-08-02T06:14:04.838Z,18.96
2023-08-02T06:16:31.741Z,18.62
2023-08-02T06:18:58.563Z,18.88
2023-08-02T06:21:25.518Z,18.90
2023-08-02T06:23:52.444Z,19.38
2023-08-02T06:26:20.281Z,19.28
2023-08-02T06:28:47.191Z,19.22
2023-08-02T06:31:14.100Z,19.00
2023-08-02T06:33:41.028Z,18.89
2023-08-02T06:36:07.969Z,19.73
2023-08-02T06:38:34.853Z,19.54
2023-08-02T06:41:01.780Z,19.42
2023-08-02T06:43:28.673Z,19.58
2023-08-02T06:45:55.613Z,19.90
2023-08-02T06:48:25.165Z,19.85
2023-08-02T06:50:53.015Z,19.53
2023-08-02T06:53:20.097Z,19.89
2023-08-02T06:55:46.998Z,20.32
2023-08-02T06:58:13.914Z,20.40
2023-08-02T07:00:43.973Z,20.00
2023-08-02T07:03:10.882Z,20.30
2023-08-02T07:05:39.032Z,20.12
2023-08-02T07:08:06.071Z,20.13
2023-08-02T07:10:33.542Z,19.92
2023-08-02T07:13:00.449Z,20.40
2023-08-02T07:15:27.337Z,20.74
2023-08-02T07:17:54.512Z,20.51
2023-08-02T07:20:22.798Z,19.78
2023-08-02T07:22:49.755Z,20.12
2023-08-02T07:25:16.688Z,19.97
2023-08-02T07:27:43.560Z,19.75
2023-08-02T07:30:10.783Z,19.49
2023-08-02T07:32:37.743Z,19.54
2023-08-02T07:35:05.061Z,19.83
2023-08-02T07:37:31.931Z,19.84
2023-08-02T07:39:59.342Z,20.55
2023-08-02T07:42:26.174Z,20.81
2023-08-02T07:45:07.329Z,21.01
2023-08-02T07:47:35.206Z,20.67
2023-08-02T07:50:02.694Z,20.57
2023-08-02T07:52:29.560Z,20.41
2023-08-02T07:54:57.108Z,20.61
2023-08-02T07:57:31.186Z,20.64
2023-08-02T07:59:58.887Z,20.51
2023-08-02T08:02:28.914Z,20.82
2023-08-02T08:04:58.438Z,20.63
2023-08-02T08:07:28.015Z,20.74
2023-08-02T08:09:54.845Z,20.99
2023-08-02T08:12:21.834Z,20.49
2023-08-02T08:14:49.054Z,20.64
2023-08-02T08:17:15.924Z,21.20
2023-08-02T08:19:44.286Z,21.08
2023-08-02T08:22:11.231Z,20.22
2023-08-02T08:24:38.430Z,20.71
2023-08-02T08:27:05.450Z,20.63
2023-08-02T08:29:32.341Z,20.93
2023-08-02T08:31:59.245Z,21.12
2023-08-02T08:34:26.390Z,21.08
2023-08-02T08:36:53.286Z,21.17
2023-08-02T08:39:21.052Z,20.93
2023-08-02T08:41:48.009Z,20.90
2023-08-02T08:44:15.118Z,20.72
2023-08-02T08:46:42.700Z,20.85
2023-08-02T08:49:09.564Z,20.41
2023-08-02T08:51:43.104Z,20.63
2023-08-02T08:54:19.694Z,20.16
2023-08-02T08:56:46.838Z,20.23
2023-08-02T08:59:15.547Z,20.15
2023-08-02T09:01:44.736Z,20.04
2023-08-02T09:04:11.973Z,20.08
2023-08-02T09:06:38.940Z,19.96
2023-08-02T09:09:06.022Z,20.09
2023-08-02T09:11:33.014Z,19.69
2023-08-02T09:14:14.411Z,19.85
2023-08-02T09:17:01.365Z,19.88
2023-08-02T09:19:33.717Z,19.99
2023-08-02T09:22:09.857Z,19.91
2023-08-02T09:24:38.203Z,19.42
2023-08-02T09:27:07.032Z,19.70
2023-08-02T09:29:48.075Z,20.04
2023-08-02T09:32:16.185Z,20.07
2023-08-02T09:34:44.714Z,19.89
2023-08-02T09:37:13.358Z,19.84
2023-08-02T09:39:41.262Z,19.45
2023-08-02T09:42:13.638Z,19.23
2023-08-02T09:44:43.574Z,19.85
2023-08-02T09:47:13.659Z,19.98
2023-08-02T09:49:40.777Z,19.67
2023-08-02T09:52:09.770Z,19.41
2023-08-02T09:54:36.578Z,19.52
2023-08-02T09:57:03.930Z,19.54
2023-08-02T09:59:31.653Z,19.37
2023-08-02T10:02:00.478Z,19.21
2023-08-02T10:04:28.518Z,19.60
2023-08-02T10:07:04.086Z,19.75
2023-08-02T10:09:34.894Z,19.55
2023-08-02T10:12:19.363Z,19.18
2023-08-02T10:14:47.647Z,19.33
2023-08-02T10:17:15.130Z,19.40
2023-08-02T10:19:42.735Z,19.58
2023-08-02T10:22:12.374Z,19.94
2023-08-02T10:24:41.564Z,19.78
2023-08-02T10:27:09.305Z,19.78
2023-08-02T10:29:37.573Z,19.74
2023-08-02T10:32:15.752Z,19.56
2023-08-02T10:34:42.572Z,19.73
2023-08-02T10:37:09.534Z,19.17
2023-08-02T10:39:54.901Z,19.41
2023-08-02T10:42:24.582Z,19.57
2023-08-02T10:44:57.830Z,19.60
2023-08-02T10:47:29.112Z,19.50
2023-08-02T10:49:57.374Z,19.92
2023-08-02T10:52:26.797Z,19.64
2023-08-02T10:55:08.570Z,19.55
2023-08-02T10:57:40.341Z,19.52
2023-08-02T11:00:18.605Z,19.47
2023-08-02T11:02:50.133Z,19.49
2023-08-02T11:05:36.683Z,19.23
2023-08-02T11:08:03.873Z,19.15
2023-08-02T11:10:30.739Z,19.22
2023-08-02T11:12:57.572Z,19.28
2023-08-02T11:15:24.616Z,19.43
2023-08-02T11:17:58.047Z,19.30
2023-08-02T11:20:28.096Z,19.42
2023-08-02T11:22:56.002Z,19.69
2023-08-02T11:28:05.479Z,19.70
2023-08-02T11:30:32.379Z,19.87
2023-08-02T11:32:59.391Z,19.85
2023-08-02T11:35:26.344Z,19.95
2023-08-02T11:37:53.271Z,20.15
2023-08-02T11:40:26.645Z,20.14
2023-08-02T11:42:56.031Z,20.17
2023-08-02T11:45:36.621Z,20.53
2023-08-02T11:48:11.089Z,20.52
2023-08-02T11:50:40.082Z,20.42
2023-08-02T11:53:09.609Z,20.53
2023-08-02T11:55:39.566Z,20.58
2023-08-02T11:58:08.051Z,20.76
2023-08-02T12:00:36.979Z,20.91
2023-08-02T12:03:11.244Z,21.00
2023-08-02T12:05:38.304Z,20.59
2023-08-02T12:08:13.409Z,20.70
2023-08-02T12:10:41.309Z,20.77
2023-08-02T12:13:16.833Z,20.84
2023-08-02T12:16:12.889Z,19.97
2023-08-02T12:18:57.335Z,20.82
2023-08-02T12:21:25.587Z,20.25
2023-08-02T12:23:53.689Z,20.36
2023-08-02T12:26:34.682Z,20.78
2023-08-02T12:29:03.094Z,20.42
2023-08-02T12:31:40.971Z,21.05
2023-08-02T12:34:07.883Z,20.55
2023-08-02T12:36:34.752Z,20.47
2023-08-02T12:39:01.715Z,20.69
2023-08-02T12:41:31.401Z,20.94
2023-08-02T12:44:02.345Z,20.34
2023-08-02T12:46:31.391Z,20.73
2023-08-02T12:48:58.421Z,20.17
2023-08-02T12:51:25.369Z,20.98
2023-08-02T12:53:52.268Z,21.02
2023-08-02T12:56:19.189Z,20.61
2023-08-02T12:58:46.072Z,21.08
2023-08-02T13:01:12.972Z,20.47
2023-08-02T13:03:40.092Z,21.34
2023-08-02T13:06:07.321Z,21.28
2023-08-02T13:08:34.170Z,21.30
2023-08-02T13:11:02.795Z,21.87
2023-08-02T13:13:29.674Z,22.00
2023-08-02T13:15:56.565Z,22.06
2023-08-02T13:18:23.406Z,22.43
2023-08-02T13:20:50.932Z,22.73
2023-08-02T13:23:18.013Z,22.83
2023-08-02T13:25:44.852Z,23.07
2023-08-02T13:28:11.679Z,23.60
2023-08-02T13:30:38.517Z,23.68
2023-08-02T13:33:05.555Z,23.98
2023-08-02T13:35:32.510Z,23.66
2023-08-02T13:37:59.613Z,24.30
2023-08-02T13:40:26.582Z,24.61
2023-08-02T13:42:53.528Z,24.09
2023-08-02T13:45:20.741Z,24.33
2023-08-02T13:47:47.745Z,24.34
2023-08-02T13:50:14.622Z,24.42
2023-08-02T13:52:41.622Z,24.19
2023-08-02T13:55:09.008Z,24.37
2023-08-02T13:57:36.030Z,24.69
2023-08-02T14:00:04.139Z,24.90
2023-08-02T14:02:31.658Z,24.48
2023-08-02T14:05:01.237Z,25.09
2023-08-02T14:07:28.441Z,24.98
2023-08-02T14:09:55.540Z,25.73
2023-08-02T14:12:22.454Z,26.40
2023-08-02T14:14:49.448Z,26.28
2023-08-02T14:17:16.357Z,26.75
2023-08-02T14:19:43.397Z,26.36
2023-08-02T14:22:10.280Z,26.42
2023-08-02T14:24:37.205Z,26.33
2023-08-02T14:27:05.843Z,26.49
2023-08-02T14:29:33.433Z,26.43
2023-08-02T14:32:00.646Z,26.28
2023-08-02T14:34:27.506Z,25.96
2023-08-02T14:36:54.389Z,25.02
2023-08-02T14:39:21.390Z,25.11
2023-08-02T14:41:48.553Z,25.38
2023-08-02T14:44:15.567Z,25.08
2023-08-02T14:46:46.915Z,25.43
2023-08-02T14:49:16.010Z,25.04
2023-08-02T14:51:43.056Z,26.05
2023-08-02T14:54:14.059Z,26.11
2023-08-02T14:56:42.865Z,26.38
2023-08-02T14:59:10.510Z,26.41
2023-08-02T15:01:37.387Z,26.92
2023-08-02T15:04:04.404Z,26.19
2023-08-02T15:06:31.316Z,25.97
2023-08-02T15:08:58.210Z,26.01
2023-08-02T15:11:25.084Z,25.57
2023-08-02T15:13:51.944Z,25.87
2023-08-02T15:16:18.936Z,24.97
2023-08-02T15:18:45.859Z,25.36
2023-08-02T15:21:12.760Z,25.38
2023-08-02T15:23:39.735Z,25.37
2023-08-02T15:26:08.279Z,24.98
2023-08-02T15:28:35.155Z,24.87
2023-08-02T15:31:02.013Z,25.37
2023-08-02T15:33:28.970Z,25.46
2023-08-02T15:35:57.828Z,25.17
2023-08-02T15:38:24.657Z,25.18
2023-08-02T15:40:55.056Z,24.60
2023-08-02T15:43:22.081Z,25.33
2023-08-02T15:45:49.035Z,25.54
2023-08-02T15:48:16.051Z,25.08
2023-08-02T15:50:42.909Z,25.21
2023-08-02T15:53:09.910Z,24.91
2023-08-02T15:55:37.168Z,24.60
2023-08-02T15:58:04.204Z,24.13
2023-08-02T16:00:31.361Z,25.06
2023-08-02T16:02:58.348Z,24.94
2023-08-02T16:05:25.340Z,24.75
2023-08-02T16:07:52.446Z,24.63
2023-08-02T16:10:19.393Z,24.55
2023-08-02T16:12:46.308Z,24.39
2023-08-02T16:15:13.157Z,23.37
2023-08-02T16:17:40.051Z,23.65
2023-08-02T16:20:07.676Z,23.83
2023-08-02T16:22:34.644Z,23.32
2023-08-02T16:25:01.587Z,23.38
2023-08-02T16:27:28.523Z,23.80
2023-08-02T16:29:55.485Z,24.32
2023-08-02T16:32:22.373Z,24.56
2023-08-02T16:34:49.325Z,24.44
2023-08-02T16:37:16.167Z,24.49
2023-08-02T16:39:43.080Z,25.01
2023-08-02T16:42:11.217Z,23.77
2023-08-02T16:44:38.162Z,23.78
2023-08-02T16:47:06.096Z,23.97
2023-08-02T16:49:32.957Z,24.05
2023-08-02T16:51:59.969Z,23.77
2023-08-02T16:54:26.899Z,24.28
2023-08-02T16:56:53.832Z,23.94
2023-08-02T16:59:20.801Z,23.29
2023-08-02T17:01:47.781Z,22.67
2023-08-02T17:04:14.620Z,22.87
2023-08-02T17:06:41.519Z,23.01
2023-08-02T17:09:08.426Z,23.17
2023-08-02T17:11:35.226Z,22.83
2023-08-02T17:14:04.654Z,23.05
2023-08-02T17:16:32.443Z,23.42
2023-08-02T17:18:59.549Z,23.29
2023-08-02T17:21:26.480Z,23.07
2023-08-02T17:23:53.733Z,23.17
2023-08-02T17:26:20.716Z,22.92
2023-08-02T17:28:47.538Z,22.73
2023-08-02T17:31:16.334Z,21.99
2023-08-02T17:33:43.539Z,22.33
2023-08-02T17:36:10.649Z,22.34
2023-08-02T17:38:37.813Z,22.44
2023-08-02T17:41:04.691Z,22.34
2023-08-02T17:43:31.683Z,22.85
2023-08-02T17:45:59.404Z,23.30
2023-08-02T17:48:26.418Z,22.69
2023-08-02T17:50:58.074Z,22.74
2023-08-02T17:53:26.277Z,22.23
2023-08-02T17:55:57.936Z,22.64
2023-08-02T17:58:25.521Z,22.73
2023-08-02T18:00:53.682Z,22.34
2023-08-02T18:03:21.165Z,22.40
2023-08-02T18:05:48.216Z,22.78
2023-08-02T18:08:15.160Z,22.22
2023-08-02T18:10:42.139Z,22.47
2023-08-02T18:13:09.596Z,22.18
2023-08-02T18:15:36.525Z,22.76
2023-08-02T18:18:04.114Z,22.29
2023-08-02T18:20:31.245Z,21.58
2023-08-02T18:22:58.157Z,21.82
2023-08-02T18:25:24.967Z,21.89
2023-08-02T18:27:52.428Z,21.86
2023-08-02T18:30:19.571Z,21.68
2023-08-02T18:32:47.330Z,22.02
2023-08-02T18:35:14.437Z,21.99
2023-08-02T18:37:41.792Z,21.11
2023-08-02T18:40:09.823Z,21.53
2023-08-02T18:42:37.011Z,21.62
2023-08-02T18:45:04.142Z,21.70
2023-08-02T18:47:31.130Z,21.06
2023-08-02T18:49:58.335Z,21.27
2023-08-02T18:52:28.046Z,21.28
2023-08-02T18:54:56.121Z,21.35
2023-08-02T18:57:23.344Z,21.36
2023-08-02T18:59:50.333Z,21.14
2023-08-02T19:02:17.537Z,21.44
2023-08-02T19:04:44.486Z,21.42
2023-08-02T19:07:11.335Z,20.98
2023-08-02T19:12:17.902Z,20.98
2023-08-02T19:14:46.847Z,21.34
2023-08-02T19:17:15.192Z,20.63
2023-08-02T19:19:43.358Z,21.10
2023-08-02T19:22:12.944Z,21.26
2023-08-02T19:24:41.765Z,21.23
2023-08-02T19:27:13.033Z,21.41
2023-08-02T19:29:40.432Z,21.24
2023-08-02T19:32:14.484Z,21.11
2023-08-02T19:34:41.496Z,20.97
2023-08-02T19:37:19.220Z,20.82
2023-08-02T19:39:47.746Z,21.38
2023-08-02T19:42:15.032Z,20.72
2023-08-02T19:44:50.341Z,20.91
2023-08-02T19:47:25.908Z,20.64
2023-08-02T19:49:55.004Z,21.14
2023-08-02T19:52:22.278Z,21.19
2023-08-02T19:54:49.661Z,21.19
2023-08-02T19:57:16.581Z,20.69
2023-08-02T19:59:43.605Z,20.55
2023-08-02T20:02:24.058Z,20.62
2023-08-02T20:04:51.891Z,20.30
2023-08-02T20:07:21.671Z,20.19
2023-08-02T20:09:53.717Z,19.90
2023-08-02T20:12:21.179Z,20.19
2023-08-02T20:14:49.930Z,19.42
2023-08-02T20:17:17.025Z,19.56
2023-08-02T20:19:46.206Z,19.49
2023-08-02T20:22:15.810Z,19.49
2023-08-02T20:24:44.878Z,19.92
2023-08-02T20:27:12.335Z,19.61
2023-08-02T20:29:43.789Z,19.55
2023-08-02T20:32:20.752Z,19.39
2023-08-02T20:34:48.626Z,19.26
2023-08-02T20:37:15.589Z,19.47
2023-08-02T20:39:45.127Z,19.11
2023-08-02T20:42:12.188Z,18.81
2023-08-02T20:44:39.096Z,19.16
2023-08-02T20:47:14.725Z,19.23
2023-08-02T20:49:41.535Z,19.03
2023-08-02T20:52:10.520Z,19.00
2023-08-02T20:54:42.634Z,18.99
2023-08-02T20:57:12.144Z,19.02
2023-08-02T20:59:38.985Z,19.21
2023-08-02T21:02:21.669Z,19.07
2023-08-02T21:04:51.323Z,19.24
2023-08-02T21:07:18.209Z,19.44
2023-08-02T21:09:45.188Z,19.42
2023-08-02T21:12:12.651Z,18.92
2023-08-02T21:14:39.849Z,19.01
2023-08-02T21:17:14.360Z,19.02
2023-08-02T21:19:41.305Z,18.96
2023-08-02T21:22:10.842Z,18.95
2023-08-02T21:24:37.847Z,19.52
2023-08-02T21:27:08.529Z,20.12
2023-08-02T21:29:35.421Z,19.82
2023-08-02T21:32:03.753Z,19.85
2023-08-02T21:34:30.690Z,19.98
2023-08-02T21:36:57.528Z,20.39
2023-08-02T21:39:24.347Z,20.28
2023-08-02T21:41:51.181Z,20.28
2023-08-02T21:44:19.315Z,20.45
2023-08-02T21:46:46.287Z,20.62
2023-08-02T21:49:14.012Z,20.90
2023-08-02T21:51:41.520Z,20.79
2023-08-02T21:54:08.923Z,20.95
2023-08-02T21:56:35.779Z,20.79
2023-08-02T21:59:03.907Z,20.91
2023-08-02T22:01:32.287Z,20.84
2023-08-02T22:03:59.935Z,20.41
2023-08-02T22:06:29.209Z,20.78
2023-08-02T22:08:56.737Z,20.52
2023-08-02T22:11:24.937Z,20.33
2023-08-02T22:13:52.352Z,20.79
2023-08-02T22:16:19.583Z,20.63
2023-08-02T22:18:46.630Z,20.10
2023-08-02T22:21:14.062Z,20.12
2023-08-02T22:23:43.410Z,20.47
2023-08-02T22:26:11.540Z,19.96
2023-08-02T22:28:38.610Z,19.87
2023-08-02T22:31:05.488Z,19.61
2023-08-02T22:33:32.278Z,19.46
2023-08-02T22:36:00.064Z,19.88
2023-08-02T22:38:38.184Z,19.80
2023-08-02T22:41:13.361Z,20.16
2023-08-02T22:43:40.260Z,19.66
2023-08-02T22:46:07.158Z,20.11
2023-08-02T22:51:03.971Z,20.09
2023-08-02T22:53:30.799Z,19.86
2023-08-02T22:55:57.669Z,19.90
2023-08-02T22:58:25.002Z,20.03
2023-08-02T23:00:52.458Z,20.16
2023-08-02T23:03:44.898Z,19.97
2023-08-02T23:06:15.099Z,20.38
2023-08-02T23:08:42.283Z,20.40
2023-08-02T23:11:13.256Z,20.31
2023-08-02T23:13:46.785Z,20.39
2023-08-02T23:16:24.734Z,20.33
2023-08-02T23:18:57.653Z,19.99
2023-08-02T23:21:33.148Z,19.97
2023-08-02T23:24:00.156Z,20.25
2023-08-02T23:26:28.594Z,20.59
2023-08-02T23:28:57.036Z,19.88
2023-08-02T23:31:25.811Z,20.35
2023-08-02T23:33:54.149Z,20.47
2023-08-02T23:36:21.827Z,20.44
2023-08-02T23:38:49.053Z,20.31
2023-08-02T23:41:16.725Z,19.79
2023-08-02T23:43:43.545Z,19.72
2023-08-02T23:46:10.452Z,20.10
2023-08-02T23:48:37.312Z,19.62
2023-08-02T23:51:04.236Z,20.06
2023-08-02T23:53:31.032Z,20.04
2023-08-02T23:55:57.840Z,19.75
2023-08-02T23:58:24.638Z,19.97
